Time;durP1;ratioP1;P1;durP2;ratioP2;P2;SDS_P1;SDS_P2;PMS_P1;PMS_P2;Temp;Humidity;BMP_temperature;BMP_pressure;BME280_temperature;BME280_humidity;BME280_pressure;Samples;Min_cycle;Max_cycle;Signal;HPM_P1;HPM_P2
2023/12/01 00:02:10;;;;;;;;;;;-2.60;99.90;;;;;;5066722;28;20394;-60
2023/12/01 00:04:38;;;;;;;;;;;-2.60;99.90;;;;;;5084570;28;19920;-60
2023/12/01 00:07:10;;;;;;;;;;;-2.60;99.90;;;;;;5088347;28;19920;-60
2023/12/01 00:09:41;;;;;;;;;;;-2.70;99.90;;;;;;5087272;28;19920;-59
2023/12/01 00:12:09;;;;;;;;;;;-2.60;99.90;;;;;;5069767;28;19920;-61
2023/12/01 00:14:41;;;;;;;;;;;-2.70;99.90;;;;;;5094224;28;19920;-60
2023/12/01 00:17:19;;;;;;;;;;;-2.60;99.90;;;;;;5096399;28;19930;-59
2023/12/01 00:19:50;;;;;;;;;;;-2.70;99.90;;;;;;5072200;28;20491;-59
2023/12/01 00:22:21;;;;;;;;;;;-2.70;99.90;;;;;;5071512;28;19924;-60
2023/12/01 00:24:49;;;;;;;;;;;-2.70;99.90;;;;;;5069263;28;19921;-59
2023/12/01 00:27:19;;;;;;;;;;;-2.70;99.90;;;;;;5071167;28;19928;-60
2023/12/01 00:29:47;;;;;;;;;;;-2.70;99.90;;;;;;5071605;28;19928;-59
2023/12/01 00:32:15;;;;;;;;;;;-2.80;99.90;;;;;;5071808;28;19920;-61
2023/12/01 00:34:43;;;;;;;;;;;-2.80;99.90;;;;;;5070343;28;19927;-60
2023/12/01 00:37:16;;;;;;;;;;;-2.70;99.90;;;;;;5067367;28;19920;-59
2023/12/01 00:39:47;;;;;;;;;;;-2.70;99.90;;;;;;5066036;28;20511;-59
2023/12/01 00:42:15;;;;;;;;;;;-2.70;99.90;;;;;;5033958;28;19921;-59
2023/12/01 00:44:45;;;;;;;;;;;-2.70;99.90;;;;;;5046485;28;19947;-60
2023/12/01 00:47:13;;;;;;;;;;;-2.70;99.90;;;;;;5071539;28;19928;-59
2023/12/01 00:49:45;;;;;;;;;;;-2.70;99.90;;;;;;5070101;28;19920;-60
2023/12/01 00:52:15;;;;;;;;;;;-2.70;99.90;;;;;;5073073;28;19929;-60
2023/12/01 00:54:45;;;;;;;;;;;-2.80;99.90;;;;;;5071499;28;19936;-60
2023/12/01 00:57:14;;;;;;;;;;;-2.80;99.90;;;;;;5051769;28;20395;-61
2023/12/01 00:59:42;;;;;;;;;;;-2.80;99.90;;;;;;5070915;28;19927;-60
2023/12/01 01:02:36;;;;;;;;;;;-2.70;99.90;;;;;;5069662;28;19924;-60
2023/12/01 01:05:04;;;;;;;;;;;-2.70;99.90;;;;;;5078248;28;19921;-58
2023/12/01 01:07:33;;;;;;;;;;;-2.80;99.90;;;;;;5069140;28;19924;-59
2023/12/01 01:10:05;;;;;;;;;;;-2.80;99.90;;;;;;5051823;28;20665;-58
2023/12/01 01:12:33;;;;;;;;;;;-2.80;99.90;;;;;;5066609;28;19925;-60
2023/12/01 01:15:03;;;;;;;;;;;-2.80;99.90;;;;;;5069831;28;20293;-60
2023/12/01 01:17:34;;;;;;;;;;;-2.90;99.90;;;;;;5052256;28;19939;-59
2023/12/01 01:20:06;;;;;;;;;;;-2.90;99.90;;;;;;5065550;28;19947;-58
2023/12/01 01:22:34;;;;;;;;;;;-3.00;99.90;;;;;;5081758;28;19951;-59
2023/12/01 01:25:24;;;;;;;;;;;-2.90;99.90;;;;;;5068658;28;19920;-60
2023/12/01 01:27:51;;;;;;;;;;;-3.00;99.90;;;;;;5079675;28;19919;-59
2023/12/01 01:30:19;;;;;;;;;;;-3.00;99.90;;;;;;5052138;28;19920;-59
2023/12/01 01:32:48;;;;;;;;;;;-3.00;99.90;;;;;;5070440;28;20284;-59
2023/12/01 01:35:16;;;;;;;;;;;-3.00;99.90;;;;;;5051619;28;19925;-59
2023/12/01 01:37:44;;;;;;;;;;;-3.00;99.90;;;;;;5083673;28;19920;-59
2023/12/01 01:40:13;;;;;;;;;;;-3.00;99.90;;;;;;5067348;28;19931;-60
2023/12/01 01:42:41;;;;;;;;;;;-3.00;99.90;;;;;;5063153;28;19921;-60
2023/12/01 01:45:09;;;;;;;;;;;-3.10;99.90;;;;;;5070059;28;19927;-59
2023/12/01 01:47:37;;;;;;;;;;;-3.10;99.90;;;;;;5071153;28;19924;-58
2023/12/01 01:50:06;;;;;;;;;;;-3.10;99.90;;;;;;5067140;28;20076;-59
2023/12/01 01:52:37;;;;;;;;;;;-3.10;99.90;;;;;;5051962;28;19920;-61
2023/12/01 01:55:13;;;;;;;;;;;-3.10;99.90;;;;;;5051344;28;19927;-59
2023/12/01 01:57:45;;;;;;;;;;;-3.10;99.90;;;;;;5065178;28;19927;-58
2023/12/01 02:00:16;;;;;;;;;;;-3.10;99.90;;;;;;5051458;28;20487;-59
2023/12/01 02:02:46;;;;;;;;;;;-3.10;99.90;;;;;;5069853;28;19920;-59
2023/12/01 02:05:14;;;;;;;;;;;-3.10;99.90;;;;;;5068073;28;19925;-58
2023/12/01 02:07:42;;;;;;;;;;;-3.20;99.90;;;;;;5075599;28;19931;-59
2023/12/01 02:10:16;;;;;;;;;;;-3.20;99.90;;;;;;5050580;28;19995;-59
2023/12/01 02:12:52;;;;;;;;;;;-3.00;99.90;;;;;;5079801;28;19920;-60
2023/12/01 02:15:20;;;;;;;;;;;-3.20;99.90;;;;;;5083984;28;20269;-58
2023/12/01 02:17:48;;;;;;;;;;;-3.20;99.90;;;;;;5053061;28;19928;-59
2023/12/01 02:20:16;;;;;;;;;;;-3.20;99.90;;;;;;5068559;28;19921;-60
2023/12/01 02:22:44;;;;;;;;;;;-3.20;99.90;;;;;;5071160;28;19923;-59
2023/12/01 02:25:12;;;;;;;;;;;-3.30;99.90;;;;;;5095432;28;20299;-60
2023/12/01 02:27:40;;;;;;;;;;;-3.30;99.90;;;;;;5074174;28;19920;-59
2023/12/01 02:30:11;;;;;;;;;;;-3.30;99.90;;;;;;5062754;28;19954;-59
2023/12/01 02:32:39;;;;;;;;;;;-3.30;99.90;;;;;;5076189;28;19935;-60
2023/12/01 02:35:09;;;;;;;;;;;-3.30;99.90;;;;;;5056453;28;19921;-60
2023/12/01 02:37:38;;;;;;;;;;;-3.30;99.90;;;;;;5074080;28;20284;-58
2023/12/01 02:40:14;;;;;;;;;;;-3.30;99.90;;;;;;5078824;28;20383;-60
2023/12/01 02:42:45;;;;;;;;;;;-3.30;99.90;;;;;;5070578;28;19920;-60
2023/12/01 02:45:13;;;;;;;;;;;-3.30;99.90;;;;;;5074861;28;19935;-61
2023/12/01 02:47:40;;;;;;;;;;;-3.30;99.90;;;;;;5073785;28;19920;-60
2023/12/01 02:50:09;;;;;;;;;;;-3.30;99.90;;;;;;5088702;28;19920;-58
2023/12/01 02:52:37;;;;;;;;;;;-3.30;99.90;;;;;;5091687;28;19924;-57
2023/12/01 02:55:07;;;;;;;;;;;-3.30;99.90;;;;;;5091603;28;19927;-58
2023/12/01 02:57:36;;;;;;;;;;;-3.30;99.90;;;;;;5083334;28;20303;-58
2023/12/01 03:00:09;;;;;;;;;;;-3.30;99.90;;;;;;5087538;28;20415;-59
2023/12/01 03:02:37;;;;;;;;;;;-3.30;99.90;;;;;;5057397;28;19920;-59
2023/12/01 03:05:05;;;;;;;;;;;-3.20;99.90;;;;;;5092136;28;19920;-60
2023/12/01 03:07:33;;;;;;;;;;;-3.20;99.90;;;;;;5091102;28;19927;-59
2023/12/01 03:10:01;;;;;;;;;;;-3.20;99.90;;;;;;5074462;28;19920;-60
2023/12/01 03:12:29;;;;;;;;;;;-3.20;99.90;;;;;;5089851;28;19920;-59
2023/12/01 03:15:00;;;;;;;;;;;-3.20;99.90;;;;;;5090717;28;19920;-60
2023/12/01 03:17:39;;;;;;;;;;;-3.20;99.90;;;;;;5084678;28;19920;-60
2023/12/01 03:20:09;;;;;;;;;;;-3.20;99.90;;;;;;5090574;28;19920;-60
2023/12/01 03:22:39;;;;;;;;;;;-3.10;99.90;;;;;;5074185;28;19968;-59
2023/12/01 03:25:11;;;;;;;;;;;-3.10;99.90;;;;;;5091012;28;19920;-60
2023/12/01 03:27:43;;;;;;;;;;;-3.10;99.90;;;;;;5073344;28;19927;-59
2023/12/01 03:30:13;;;;;;;;;;;-3.10;99.90;;;;;;5073101;28;19920;-60
2023/12/01 03:32:46;;;;;;;;;;;-3.10;99.90;;;;;;5091898;28;19927;-60
2023/12/01 03:35:18;;;;;;;;;;;-3.10;99.90;;;;;;5090760;28;20295;-60
2023/12/01 03:37:55;;;;;;;;;;;-3.20;99.90;;;;;;5091401;28;19920;-59
2023/12/01 03:40:24;;;;;;;;;;;-3.20;99.90;;;;;;5092065;28;19950;-61
2023/12/01 03:42:52;;;;;;;;;;;-3.20;99.90;;;;;;5072707;28;19943;-61
2023/12/01 03:45:20;;;;;;;;;;;-3.20;99.90;;;;;;5091927;28;19943;-61
2023/12/01 03:47:49;;;;;;;;;;;-3.30;99.90;;;;;;5072188;28;19923;-60
2023/12/01 03:50:20;;;;;;;;;;;-3.30;99.90;;;;;;5091706;28;19920;-60
2023/12/01 03:52:51;;;;;;;;;;;-3.30;99.90;;;;;;5090800;28;19923;-61
2023/12/01 03:55:19;;;;;;;;;;;-3.30;99.90;;;;;;5073935;28;19927;-60
2023/12/01 03:57:47;;;;;;;;;;;-3.30;99.90;;;;;;5073447;28;19920;-61
2023/12/01 04:00:16;;;;;;;;;;;-3.30;99.90;;;;;;5056462;28;19920;-60
2023/12/01 04:02:47;;;;;;;;;;;-3.40;99.90;;;;;;5073726;28;19920;-59
2023/12/01 04:05:19;;;;;;;;;;;-3.40;99.90;;;;;;5090469;28;19920;-60
2023/12/01 04:07:54;;;;;;;;;;;-3.40;99.90;;;;;;5090357;28;19990;-60
2023/12/01 04:10:25;;;;;;;;;;;-3.40;99.90;;;;;;5090509;28;20296;-60
2023/12/01 04:12:54;;;;;;;;;;;-3.50;99.90;;;;;;5073015;28;19920;-60
2023/12/01 04:15:26;;;;;;;;;;;-3.50;99.90;;;;;;5072356;28;19920;-59
2023/12/01 04:17:55;;;;;;;;;;;-3.50;99.90;;;;;;5071705;28;19928;-59
2023/12/01 04:20:28;;;;;;;;;;;-3.50;99.90;;;;;;5090369;28;20396;-58
2023/12/01 04:23:00;;;;;;;;;;;-3.50;99.90;;;;;;5072256;28;20367;-60
2023/12/01 04:25:29;;;;;;;;;;;-3.50;99.90;;;;;;5082796;28;19932;-59
2023/12/01 04:27:58;;;;;;;;;;;-3.50;99.90;;;;;;5081223;28;19955;-58
2023/12/01 04:30:26;;;;;;;;;;;-3.60;99.90;;;;;;5071246;28;19921;-58
2023/12/01 04:32:54;;;;;;;;;;;-3.60;99.90;;;;;;5060260;28;20291;-58
2023/12/01 04:35:26;;;;;;;;;;;-3.60;99.90;;;;;;5091302;28;19927;-59
2023/12/01 04:37:54;;;;;;;;;;;-3.60;99.90;;;;;;5088385;28;20260;-58
2023/12/01 04:40:23;;;;;;;;;;;-3.60;99.90;;;;;;5091842;28;19920;-58
2023/12/01 04:42:51;;;;;;;;;;;-3.60;99.90;;;;;;5091305;28;19920;-58
2023/12/01 04:45:21;;;;;;;;;;;-3.60;99.90;;;;;;5071891;28;20280;-59
2023/12/01 04:47:52;;;;;;;;;;;-3.60;99.90;;;;;;5090832;28;19919;-60
2023/12/01 04:50:30;;;;;;;;;;;-3.60;99.90;;;;;;5089208;28;19920;-60
2023/12/01 04:52:58;;;;;;;;;;;-3.60;99.90;;;;;;5079122;28;19921;-60
2023/12/01 04:55:26;;;;;;;;;;;-3.60;99.90;;;;;;5085767;28;20265;-60
2023/12/01 04:57:58;;;;;;;;;;;-3.60;99.90;;;;;;5094718;28;19927;-59
2023/12/01 05:00:26;;;;;;;;;;;-3.60;99.90;;;;;;5085491;28;19920;-61
2023/12/01 05:02:56;;;;;;;;;;;-3.60;99.90;;;;;;5056071;28;20407;-60
2023/12/01 05:05:24;;;;;;;;;;;-3.60;99.90;;;;;;5092868;28;20391;-61
2023/12/01 05:07:57;;;;;;;;;;;-3.60;99.90;;;;;;5094386;28;19920;-60
2023/12/01 05:10:26;;;;;;;;;;;-3.60;99.90;;;;;;5094494;28;19926;-61
2023/12/01 05:12:55;;;;;;;;;;;-3.60;99.90;;;;;;5093427;28;20529;-60
2023/12/01 05:15:24;;;;;;;;;;;-3.60;99.90;;;;;;5094352;28;19920;-60
2023/12/01 05:17:53;;;;;;;;;;;-3.60;99.90;;;;;;5074946;28;19927;-61
2023/12/01 05:20:23;;;;;;;;;;;-3.60;99.90;;;;;;5094535;28;19926;-61
2023/12/01 05:22:51;;;;;;;;;;;-3.60;99.90;;;;;;5094457;28;19920;-60
2023/12/01 05:25:19;;;;;;;;;;;-3.60;99.90;;;;;;5092568;28;20383;-60
2023/12/01 05:27:53;;;;;;;;;;;-3.70;99.90;;;;;;5093825;28;19927;-60
2023/12/01 05:30:29;;;;;;;;;;;-3.60;99.90;;;;;;5075075;28;20296;-61
2023/12/01 05:33:00;;;;;;;;;;;-3.60;99.90;;;;;;5075836;28;20396;-60
2023/12/01 05:35:28;;;;;;;;;;;-3.60;99.90;;;;;;5086675;28;19920;-59
2023/12/01 05:37:57;;;;;;;;;;;-3.70;99.90;;;;;;5092974;28;20372;-58
2023/12/01 05:40:26;;;;;;;;;;;-3.70;99.90;;;;;;5093140;28;19991;-59
2023/12/01 05:42:55;;;;;;;;;;;-3.70;99.90;;;;;;5094228;28;19920;-59
2023/12/01 05:45:25;;;;;;;;;;;-3.70;99.90;;;;;;5093101;28;20291;-59
2023/12/01 05:47:53;;;;;;;;;;;-3.70;99.90;;;;;;5083089;28;19925;-60
2023/12/01 05:50:23;;;;;;;;;;;-3.70;99.90;;;;;;5089587;28;19927;-58
2023/12/01 05:52:52;;;;;;;;;;;-3.80;99.90;;;;;;5089002;28;20318;-59
2023/12/01 05:55:40;;;;;;;;;;;-3.80;99.90;;;;;;5072365;28;19921;-60
2023/12/01 05:58:10;;;;;;;;;;;-3.80;99.90;;;;;;5061762;28;19921;-60
2023/12/01 06:00:39;;;;;;;;;;;-3.80;99.90;;;;;;5036020;28;19927;-59
2023/12/01 06:03:09;;;;;;;;;;;-3.80;99.90;;;;;;5070565;28;20371;-59
2023/12/01 06:05:38;;;;;;;;;;;-3.80;99.90;;;;;;5066302;28;20296;-60
2023/12/01 06:08:08;;;;;;;;;;;-3.80;99.90;;;;;;5075154;28;19923;-62
2023/12/01 06:10:39;;;;;;;;;;;-3.80;99.90;;;;;;5088897;28;20312;-60
2023/12/01 06:13:08;;;;;;;;;;;-3.80;99.90;;;;;;5078525;28;20387;-61
2023/12/01 06:15:36;;;;;;;;;;;-3.80;99.90;;;;;;5080984;28;20307;-59
2023/12/01 06:18:03;;;;;;;;;;;-3.80;99.90;;;;;;5067755;28;19921;-60
2023/12/01 06:20:34;;;;;;;;;;;-3.90;99.90;;;;;;5046695;28;20280;-60
2023/12/01 06:23:07;;;;;;;;;;;-3.90;99.90;;;;;;5057138;28;19928;-60
2023/12/01 06:25:41;;;;;;;;;;;-3.90;99.90;;;;;;5074699;28;20451;-59
2023/12/01 06:28:10;;;;;;;;;;;-3.80;99.90;;;;;;5065801;28;20308;-59
2023/12/01 06:30:42;;;;;;;;;;;-3.80;99.90;;;;;;5048475;28;20702;-60
2023/12/01 06:33:10;;;;;;;;;;;-3.80;99.90;;;;;;5061608;28;19936;-58
2023/12/01 06:35:39;;;;;;;;;;;-3.80;99.90;;;;;;5052314;28;19921;-61
2023/12/01 06:38:07;;;;;;;;;;;-3.90;99.90;;;;;;5053257;28;19927;-61
2023/12/01 06:40:35;;;;;;;;;;;-3.90;99.90;;;;;;5065281;28;19927;-61
2023/12/01 06:43:09;;;;;;;;;;;-3.90;99.90;;;;;;5068791;28;19920;-61
2023/12/01 06:45:44;;;;;;;;;;;-3.90;99.90;;;;;;5086617;28;19929;-60
2023/12/01 06:48:12;;;;;;;;;;;-4.00;99.90;;;;;;5064391;28;19921;-61
2023/12/01 06:50:41;;;;;;;;;;;-4.00;99.90;;;;;;5050677;28;20312;-59
2023/12/01 06:53:12;;;;;;;;;;;-4.00;99.90;;;;;;5067930;28;19924;-61
2023/12/01 06:55:40;;;;;;;;;;;-4.00;99.90;;;;;;5071463;28;19943;-59
2023/12/01 06:58:09;;;;;;;;;;;-4.00;99.90;;;;;;5073075;28;20296;-60
2023/12/01 07:00:38;;;;;;;;;;;-4.00;99.90;;;;;;5067309;28;19947;-60
2023/12/01 07:03:10;;;;;;;;;;;-4.00;99.90;;;;;;5058242;28;20296;-58
2023/12/01 07:05:39;;;;;;;;;;;-4.00;99.90;;;;;;5064694;28;19928;-58
2023/12/01 07:08:11;;;;;;;;;;;-4.00;99.90;;;;;;5060561;28;20649;-59
2023/12/01 07:10:40;;;;;;;;;;;-4.00;99.90;;;;;;5067847;28;20392;-59
2023/12/01 07:13:09;;;;;;;;;;;-4.00;99.90;;;;;;5067274;28;20376;-59
2023/12/01 07:15:37;;;;;;;;;;;-4.10;99.90;;;;;;5071242;28;19924;-58
2023/12/01 07:18:06;;;;;;;;;;;-4.10;99.90;;;;;;5063754;28;19924;-61
2023/12/01 07:20:35;;;;;;;;;;;-4.10;99.90;;;;;;5068430;28;19927;-60
2023/12/01 07:23:05;;;;;;;;;;;-4.10;99.90;;;;;;5074258;28;19920;-61
2023/12/01 07:25:38;;;;;;;;;;;-4.10;99.90;;;;;;5084897;28;19924;-61
2023/12/01 07:28:09;;;;;;;;;;;-4.20;99.90;;;;;;5066536;28;19920;-62
2023/12/01 07:30:40;;;;;;;;;;;-4.10;99.90;;;;;;5085627;28;19927;-61
2023/12/01 07:33:34;;;;;;;;;;;-4.20;99.90;;;;;;5085730;28;20469;-61
2023/12/01 07:36:02;;;;;;;;;;;-4.20;99.90;;;;;;5076332;28;19930;-59
2023/12/01 07:38:30;;;;;;;;;;;-4.20;99.90;;;;;;5077208;28;20292;-61
2023/12/01 07:41:01;;;;;;;;;;;-4.20;99.90;;;;;;5086324;28;19931;-61
2023/12/01 07:43:31;;;;;;;;;;;-4.20;99.90;;;;;;5076446;28;19921;-60
2023/12/01 07:45:59;;;;;;;;;;;-4.20;99.90;;;;;;5075704;28;19927;-61
2023/12/01 07:48:27;;;;;;;;;;;-4.30;99.90;;;;;;5068765;28;19920;-61
2023/12/01 07:50:55;;;;;;;;;;;-4.30;99.90;;;;;;5080698;28;19920;-61
2023/12/01 07:53:25;;;;;;;;;;;-4.30;99.90;;;;;;5088120;28;19924;-58
2023/12/01 07:55:56;;;;;;;;;;;-4.30;99.90;;;;;;5072720;28;19924;-60
2023/12/01 07:58:24;;;;;;;;;;;-4.30;99.90;;;;;;5078741;28;19920;-60
2023/12/01 08:00:52;;;;;;;;;;;-4.30;99.90;;;;;;5102614;28;19928;-61
2023/12/01 08:03:20;;;;;;;;;;;-4.30;99.90;;;;;;5076110;28;20288;-61
2023/12/01 08:05:48;;;;;;;;;;;-4.30;99.90;;;;;;5093067;28;19998;-60
2023/12/01 08:08:18;;;;;;;;;;;-4.20;99.90;;;;;;5056966;28;19924;-58
2023/12/01 08:10:51;;;;;;;;;;;-4.20;99.90;;;;;;5073774;28;19920;-59
2023/12/01 08:13:21;;;;;;;;;;;-4.20;99.90;;;;;;5072274;28;20372;-60
2023/12/01 08:16:00;;;;;;;;;;;-4.20;99.90;;;;;;5075133;28;19930;-61
2023/12/01 08:18:28;;;;;;;;;;;-4.20;99.90;;;;;;5062948;28;19950;-62
2023/12/01 08:20:56;;;;;;;;;;;-4.20;99.90;;;;;;5085806;28;19927;-63
2023/12/01 08:23:23;;;;;;;;;;;-4.20;99.90;;;;;;5079299;28;20427;-61
2023/12/01 08:25:52;;;;;;;;;;;-4.20;99.90;;;;;;5085611;28;19946;-60
2023/12/01 08:28:19;;;;;;;;;;;-4.20;99.90;;;;;;5066776;28;19934;-62
2023/12/01 08:30:47;;;;;;;;;;;-4.20;99.90;;;;;;5089041;28;19920;-59
2023/12/01 08:33:16;;;;;;;;;;;-4.20;99.90;;;;;;5066007;28;19919;-61
2023/12/01 08:35:50;;;;;;;;;;;-4.20;99.90;;;;;;5089087;28;19920;-61
2023/12/01 08:38:21;;;;;;;;;;;-4.10;99.90;;;;;;5080930;28;19931;-60
2023/12/01 08:40:49;;;;;;;;;;;-4.10;99.90;;;;;;5070145;28;19927;-60
2023/12/01 08:43:22;;;;;;;;;;;-4.10;99.90;;;;;;5084691;28;19931;-61
2023/12/01 08:45:51;;;;;;;;;;;-4.10;99.90;;;;;;5085056;28;20273;-61
2023/12/01 08:48:18;;;;;;;;;;;-4.10;99.90;;;;;;5079931;28;19924;-60
2023/12/01 08:50:55;;;;;;;;;;;-4.10;99.90;;;;;;5071404;28;19935;-63
2023/12/01 08:53:28;;;;;;;;;;;-4.00;99.90;;;;;;5080753;28;19924;-62
2023/12/01 08:56:01;;;;;;;;;;;-3.90;99.90;;;;;;5089605;28;19920;-63
2023/12/01 08:58:29;;;;;;;;;;;-3.90;99.90;;;;;;5066010;28;19927;-62
2023/12/01 09:00:57;;;;;;;;;;;-3.80;99.90;;;;;;5073237;28;19927;-62
2023/12/01 09:03:25;;;;;;;;;;;-3.80;99.90;;;;;;5082841;28;19922;-62
2023/12/01 09:05:52;;;;;;;;;;;-3.70;99.90;;;;;;5087835;28;19924;-61
2023/12/01 09:08:21;;;;;;;;;;;-3.60;99.90;;;;;;5081541;28;19921;-60
2023/12/01 09:10:49;;;;;;;;;;;-3.50;99.90;;;;;;5085394;28;20003;-60
2023/12/01 09:13:17;;;;;;;;;;;-3.50;99.90;;;;;;5076231;28;19928;-62
2023/12/01 09:15:48;;;;;;;;;;;-3.40;99.90;;;;;;5071689;28;19924;-61
2023/12/01 09:18:16;;;;;;;;;;;-3.30;99.90;;;;;;5081583;28;19931;-60
2023/12/01 09:20:44;;;;;;;;;;;-3.20;99.90;;;;;;5084197;28;20311;-61
2023/12/01 09:23:12;;;;;;;;;;;-3.10;99.90;;;;;;5070421;28;19939;-61
2023/12/01 09:25:40;;;;;;;;;;;-3.00;99.90;;;;;;5089463;28;19924;-62
2023/12/01 09:28:08;;;;;;;;;;;-2.90;99.90;;;;;;5085285;28;20406;-63
2023/12/01 09:30:36;;;;;;;;;;;-2.80;99.90;;;;;;5089062;28;20412;-63
2023/12/01 09:33:05;;;;;;;;;;;-2.80;99.90;;;;;;5069708;28;19920;-62
2023/12/01 09:35:33;;;;;;;;;;;-2.70;99.90;;;;;;5084577;28;19924;-62
2023/12/01 09:38:21;;;;;;;;;;;-2.60;99.90;;;;;;5080482;28;19920;-62
2023/12/01 09:40:49;;;;;;;;;;;-2.50;99.90;;;;;;5088608;28;19927;-62
2023/12/01 09:43:17;;;;;;;;;;;-2.50;99.90;;;;;;5082610;28;19924;-60
2023/12/01 09:45:46;;;;;;;;;;;-2.40;99.90;;;;;;5078436;28;19928;-59
2023/12/01 09:48:20;;;;;;;;;;;-2.30;99.90;;;;;;5056242;28;19939;-60
2023/12/01 09:50:51;;;;;;;;;;;-2.20;99.90;;;;;;5068537;28;19920;-60
2023/12/01 09:53:22;;;;;;;;;;;-2.20;99.90;;;;;;5089849;28;20300;-60
2023/12/01 09:55:50;;;;;;;;;;;-2.10;99.90;;;;;;5088145;28;19931;-60
2023/12/01 09:58:19;;;;;;;;;;;-2.00;99.90;;;;;;5088113;28;19927;-61
2023/12/01 10:00:47;;;;;;;;;;;-1.90;99.90;;;;;;5103749;28;19919;-60
2023/12/01 10:03:15;;;;;;;;;;;-1.80;99.90;;;;;;5090807;28;19978;-60
2023/12/01 10:05:43;;;;;;;;;;;-1.70;99.90;;;;;;5071260;28;19931;-59
2023/12/01 10:08:11;;;;;;;;;;;-1.60;99.90;;;;;;5087472;28;19920;-59
2023/12/01 10:10:41;;;;;;;;;;;-1.50;99.90;;;;;;5087787;28;20406;-59
2023/12/01 10:13:09;;;;;;;;;;;-1.40;99.90;;;;;;5069051;28;20304;-60
2023/12/01 10:15:38;;;;;;;;;;;-1.30;99.90;;;;;;5093655;28;19934;-61
2023/12/01 10:18:11;;;;;;;;;;;-1.20;99.90;;;;;;5087692;28;20272;-59
2023/12/01 10:20:57;;;;;;;;;;;-1.10;99.90;;;;;;5085630;28;19927;-60
2023/12/01 10:23:27;;;;;;;;;;;-1.00;99.90;;;;;;5060908;28;19924;-61
2023/12/01 10:25:56;;;;;;;;;;;-0.90;99.90;;;;;;5070984;28;20281;-62
2023/12/01 10:28:40;;;;;;;;;;;-0.80;99.90;;;;;;5079439;28;19920;-60
2023/12/01 10:31:10;;;;;;;;;;;-0.70;99.90;;;;;;5069724;28;19920;-61
2023/12/01 10:33:38;;;;;;;;;;;-0.60;99.90;;;;;;5073836;28;19928;-63
2023/12/01 10:36:07;;;;;;;;;;;-0.50;99.90;;;;;;5085594;28;19924;-59
2023/12/01 10:38:36;;;;;;;;;;;-0.40;99.90;;;;;;5079997;28;20292;-60
2023/12/01 10:41:05;;;;;;;;;;;-0.30;99.90;;;;;;5081529;28;19924;-61
2023/12/01 10:43:34;;;;;;;;;;;-0.20;99.90;;;;;;5078558;28;19924;-60
2023/12/01 10:46:03;;;;;;;;;;;-0.10;99.90;;;;;;5054699;28;20521;-58
2023/12/01 10:48:33;;;;;;;;;;;0.00;99.90;;;;;;5078186;28;19935;-59
2023/12/01 10:51:05;;;;;;;;;;;0.10;99.90;;;;;;5085786;28;19920;-59
2023/12/01 10:53:34;;;;;;;;;;;0.30;99.90;;;;;;5085146;28;19923;-58
2023/12/01 10:56:04;;;;;;;;;;;0.40;99.90;;;;;;5072217;28;20042;-58
2023/12/01 10:58:35;;;;;;;;;;;0.60;99.90;;;;;;5053047;28;19920;-59
2023/12/01 11:01:04;;;;;;;;;;;0.70;99.90;;;;;;5080195;28;19920;-60
2023/12/01 11:03:32;;;;;;;;;;;0.90;99.90;;;;;;5070740;28;19920;-60
2023/12/01 11:06:46;;;;;;;;;;;1.10;99.90;;;;;;5078580;28;19920;-59
2023/12/01 11:09:24;;;;;;;;;;;1.30;99.90;;;;;;5080954;28;19946;-59
2023/12/01 11:11:56;;;;;;;;;;;1.50;99.90;;;;;;5088424;28;19924;-61
2023/12/01 11:14:30;;;;;;;;;;;1.80;99.90;;;;;;5071041;28;19920;-59
2023/12/01 11:16:58;;;;;;;;;;;1.90;99.90;;;;;;5088519;28;19934;-58
2023/12/01 11:19:33;;;;;;;;;;;2.20;99.90;;;;;;5063739;28;19932;-59
2023/12/01 11:22:20;;;;;;;;;;;2.40;99.90;;;;;;5086302;28;19927;-60
2023/12/01 11:24:48;;;;;;;;;;;2.60;99.90;;;;;;5086253;28;19943;-61
2023/12/01 11:27:19;;;;;;;;;;;2.90;99.90;;;;;;5088645;28;19943;-61
2023/12/01 11:29:58;;;;;;;;;;;3.10;99.90;;;;;;5074694;28;20307;-59
2023/12/01 11:32:35;;;;;;;;;;;3.30;99.90;;;;;;5065184;28;20296;-60
2023/12/01 11:35:06;;;;;;;;;;;3.60;99.90;;;;;;5079346;28;20257;-59
2023/12/01 11:37:53;;;;;;;;;;;3.60;99.90;;;;;;5081281;28;19927;-59
2023/12/01 11:40:26;;;;;;;;;;;3.80;99.90;;;;;;5070232;28;19924;-59
2023/12/01 11:42:57;;;;;;;;;;;4.00;99.90;;;;;;5081733;28;19931;-58
2023/12/01 11:45:41;;;;;;;;;;;4.30;99.90;;;;;;5086485;28;20371;-58
2023/12/01 11:48:10;;;;;;;;;;;4.60;99.90;;;;;;5067575;28;20307;-58
2023/12/01 11:50:41;;;;;;;;;;;5.00;99.90;;;;;;5051156;28;19928;-58
2023/12/01 11:53:13;;;;;;;;;;;5.30;99.90;;;;;;5077321;28;20295;-59
2023/12/01 11:55:41;;;;;;;;;;;5.60;99.90;;;;;;5088710;28;19924;-58
2023/12/01 11:58:13;;;;;;;;;;;6.00;99.90;;;;;;5069770;28;19924;-58
2023/12/01 12:00:41;;;;;;;;;;;6.40;99.90;;;;;;5082426;28;19924;-58
2023/12/01 12:03:20;;;;;;;;;;;6.50;99.90;;;;;;5067433;28;19920;-58
2023/12/01 12:05:50;;;;;;;;;;;6.80;99.90;;;;;;5090532;28;20364;-58
2023/12/01 12:08:18;;;;;;;;;;;7.00;99.90;;;;;;5078461;28;19924;-58
2023/12/01 12:10:46;;;;;;;;;;;7.20;99.90;;;;;;5091261;28;19920;-57
2023/12/01 12:13:13;;;;;;;;;;;7.50;99.90;;;;;;5066476;28;20502;-56
2023/12/01 12:15:41;;;;;;;;;;;7.80;99.90;;;;;;5077546;28;20406;-57
2023/12/01 12:18:09;;;;;;;;;;;8.20;99.90;;;;;;5077678;28;19920;-58
2023/12/01 12:20:36;;;;;;;;;;;8.50;99.90;;;;;;5074950;28;19920;-59
2023/12/01 12:23:05;;;;;;;;;;;8.70;99.90;;;;;;5091812;28;20521;-58
2023/12/01 12:25:36;;;;;;;;;;;8.90;99.90;;;;;;5091973;28;19927;-59
2023/12/01 12:28:11;;;;;;;;;;;9.00;99.90;;;;;;5083648;28;19947;-58
2023/12/01 12:30:39;;;;;;;;;;;9.30;99.90;;;;;;5071664;28;19920;-58
2023/12/01 12:33:06;;;;;;;;;;;9.60;99.90;;;;;;5080178;28;20296;-58
2023/12/01 12:35:35;;;;;;;;;;;9.80;99.90;;;;;;5091186;28;19928;-58
2023/12/01 12:38:03;;;;;;;;;;;10.20;99.90;;;;;;5089951;28;19931;-58
2023/12/01 12:40:34;;;;;;;;;;;10.40;99.90;;;;;;5055003;28;19928;-58
2023/12/01 12:43:05;;;;;;;;;;;10.60;99.90;;;;;;5072261;28;19921;-59
2023/12/01 12:45:32;;;;;;;;;;;10.80;99.90;;;;;;5079349;28;20368;-58
2023/12/01 12:48:07;;;;;;;;;;;11.00;99.90;;;;;;5085940;28;19920;-59
2023/12/01 12:50:39;;;;;;;;;;;11.20;99.90;;;;;;5053510;28;19947;-58
2023/12/01 12:53:06;;;;;;;;;;;11.40;99.90;;;;;;5058110;28;19934;-59
2023/12/01 12:55:34;;;;;;;;;;;11.60;99.90;;;;;;5071421;28;20714;-59
2023/12/01 12:58:02;;;;;;;;;;;11.80;99.90;;;;;;5075246;28;19924;-58
2023/12/01 13:00:30;;;;;;;;;;;12.00;99.90;;;;;;5090815;28;19935;-59
2023/12/01 13:02:57;;;;;;;;;;;12.10;99.90;;;;;;5091454;28;20284;-59
2023/12/01 13:05:26;;;;;;;;;;;12.20;99.90;;;;;;5091215;28;19935;-59
2023/12/01 13:07:54;;;;;;;;;;;12.20;99.90;;;;;;5086634;28;19920;-59
2023/12/01 13:10:22;;;;;;;;;;;12.00;99.90;;;;;;5089622;28;19923;-59
2023/12/01 13:12:49;;;;;;;;;;;11.90;99.90;;;;;;5087468;28;19931;-58
2023/12/01 13:15:17;;;;;;;;;;;11.90;99.90;;;;;;5075005;28;19921;-58
2023/12/01 13:17:45;;;;;;;;;;;11.90;99.90;;;;;;5088398;28;19928;-59
2023/12/01 13:20:13;;;;;;;;;;;12.00;99.90;;;;;;5089518;28;19928;-58
2023/12/01 13:22:40;;;;;;;;;;;12.00;99.90;;;;;;5084491;28;20280;-59
2023/12/01 13:25:08;;;;;;;;;;;12.00;99.90;;;;;;5090698;28;19920;-58
2023/12/01 13:27:36;;;;;;;;;;;12.10;99.90;;;;;;5089107;28;19931;-59
2023/12/01 13:30:05;;;;;;;;;;;12.10;99.90;;;;;;5091561;28;19924;-59
2023/12/01 13:32:32;;;;;;;;;;;12.20;99.90;;;;;;5086693;28;19943;-59
2023/12/01 13:35:01;;;;;;;;;;;12.20;99.90;;;;;;5083207;28;20458;-59
2023/12/01 13:37:29;;;;;;;;;;;12.30;99.90;;;;;;5086448;28;19931;-59
2023/12/01 13:39:56;;;;;;;;;;;12.40;99.90;;;;;;5089715;28;20356;-59
2023/12/01 13:42:29;;;;;;;;;;;12.50;99.90;;;;;;5089177;28;19920;-59
2023/12/01 13:44:59;;;;;;;;;;;12.70;99.90;;;;;;5072157;28;19924;-59
2023/12/01 13:47:27;;;;;;;;;;;12.80;99.90;;;;;;5060045;28;20448;-58
2023/12/01 13:49:54;;;;;;;;;;;12.80;99.90;;;;;;5070339;28;19924;-60
2023/12/01 13:52:24;;;;;;;;;;;12.80;99.90;;;;;;5072068;28;21502;-57
2023/12/01 13:54:53;;;;;;;;;;;12.60;99.90;;;;;;5088484;28;20381;-59
2023/12/01 13:57:21;;;;;;;;;;;12.10;99.60;;;;;;5090309;28;19920;-58
2023/12/01 13:59:49;;;;;;;;;;;11.20;99.40;;;;;;5069529;28;19920;-57
2023/12/01 14:02:18;;;;;;;;;;;10.30;99.20;;;;;;5069965;28;19920;-58
2023/12/01 14:04:46;;;;;;;;;;;9.30;99.30;;;;;;5063026;28;20381;-57
2023/12/01 14:07:15;;;;;;;;;;;8.40;99.60;;;;;;5070949;28;19927;-58
2023/12/01 14:09:42;;;;;;;;;;;7.60;99.90;;;;;;5084511;28;20319;-57
2023/12/01 14:12:10;;;;;;;;;;;6.80;99.90;;;;;;5089919;28;19920;-60
2023/12/01 14:14:38;;;;;;;;;;;6.20;99.90;;;;;;5069770;28;20245;-59
2023/12/01 14:17:05;;;;;;;;;;;5.70;99.90;;;;;;5069990;28;19938;-59
2023/12/01 14:19:33;;;;;;;;;;;5.20;99.90;;;;;;5089526;28;19920;-59
2023/12/01 14:22:01;;;;;;;;;;;4.90;99.90;;;;;;5088731;28;19920;-58
2023/12/01 14:24:29;;;;;;;;;;;4.50;99.90;;;;;;5063841;28;19920;-59
2023/12/01 14:26:57;;;;;;;;;;;4.30;99.90;;;;;;5084343;28;20403;-60
2023/12/01 14:29:24;;;;;;;;;;;4.00;99.90;;;;;;5077534;28;19928;-59
2023/12/01 14:31:52;;;;;;;;;;;3.80;99.90;;;;;;5066945;28;20563;-57
2023/12/01 14:34:20;;;;;;;;;;;3.60;99.90;;;;;;5088595;28;19927;-58
2023/12/01 14:36:48;;;;;;;;;;;3.40;99.90;;;;;;5089158;28;19920;-58